< Typhoon 196726 1967 Season Typhoon 196728 >
Typhoon 196727 (SARAH)
General InformationTrack Information on Google Maps || Disaster Info.ResourceGoogle EarthGE AnimationAtom FeedGeoJSON
Detalied Best Track (Time Zone = UTC)
Year Month Day Hour Lat. Long. Pressure (hPa) Wind (kt) Class Image Chart
1967 9 14 00 18.0 180.4 994 0 7 -- Chart
1967 9 14 06 18.0 178.7 970 0 9 -- Chart
1967 9 14 12 17.9 178.0 960 0 9 -- Chart
1967 9 14 18 17.9 176.8 950 0 9 -- Chart
1967 9 15 00 17.9 175.5 930 0 9 -- Chart
1967 9 15 06 18.1 174.2 934 0 9 -- Chart
1967 9 15 12 18.5 172.6 936 0 9 -- Chart
1967 9 15 18 18.9 171.2 936 0 9 -- Chart
1967 9 16 00 19.0 169.0 935 0 9 -- Chart
1967 9 16 06 19.1 167.7 935 0 9 -- Chart
1967 9 16 12 19.4 166.2 940 0 9 -- Chart
1967 9 16 18 19.8 164.7 945 0 9 -- Chart
1967 9 17 00 20.0 163.5 944 0 9 -- Chart
1967 9 17 06 20.0 162.1 940 0 9 -- Chart
1967 9 17 12 20.1 160.9 942 0 9 -- Chart
1967 9 17 18 20.1 160.1 946 0 9 -- Chart
1967 9 18 00 20.0 159.4 946 0 9 -- Chart
1967 9 18 06 20.0 158.7 946 0 9 -- Chart
1967 9 18 12 20.0 158.1 948 0 9 -- Chart
1967 9 18 18 20.4 157.5 950 0 9 -- Chart
1967 9 19 00 20.9 157.1 954 0 9 -- Chart
1967 9 19 06 21.7 156.4 957 0 9 -- Chart
1967 9 19 12 22.7 155.7 960 0 9 -- Chart
1967 9 19 18 24.0 154.6 962 0 9 -- Chart
1967 9 20 00 25.2 153.7 968 0 9 -- Chart
1967 9 20 06 26.3 152.8 970 0 9 -- Chart
1967 9 20 12 27.3 152.3 968 0 9 -- Chart
1967 9 20 18 28.6 151.2 966 0 9 -- Chart
1967 9 21 00 30.0 150.0 964 0 9 -- Chart
1967 9 21 06 31.6 149.0 966 0 9 -- Chart
1967 9 21 12 33.0 149.0 970 0 9 -- Chart
1967 9 21 18 34.7 149.8 974 0 9 -- Chart
1967 9 22 00 36.6 151.4 977 0 9 -- Chart
1967 9 22 06 38.1 153.2 978 0 9 -- Chart
1967 9 22 12 39.5 155.8 980 0 6 -- Chart
1967 9 22 18 40.3 159.0 990 0 6 -- Chart
1967 9 23 00 41.0 164.0 996 0 6 -- Chart
1967 9 23 06 41.0 168.0 998 0 6 -- Chart
1967 9 23 12 40.0 174.0 996 0 6 -- Chart
1967 9 23 18 39.0 180.0 996 0 6 -- Chart
Japan Meteorological Agency Best Track Data | Correction Date : 1992-01-27
< Typhoon 196726 1967 Season Typhoon 196728 >

Help